Beaver Dam, Wisconsin
Current Conditions -  °F | °C
As of 8:15 AM on Monday 20 Oct 2014 (Local Time) from KUNU Reporting Station
Broken Clouds Broken Clouds  
Wind Chill:   Ceiling: 6500
Heat Index:   Visibility: 10mi
Dew Point:   Wind: 8mph
Humidity: 91%   Direction: 320°NW
Pressure: 29.85"   Gusts: NA
Location:  43.46°N, 88.83°W
Report Text: KUNU 201315Z AUTO 32007KT 10SM SCT050 BKN065 08/06 A2985 RMK AO2 T00770063
Loading
Personal Weather Stations






























Interactive Weather Map
Tropical Storm Tracking
New forecast layout! Learn more

10-Day Weather Forecast

Advertisements
Track Severe Weather on mobile